createdAt,value
2023-03-19T00:02:28.775Z,12.30
2023-03-19T00:05:16.683Z,12.20
2023-03-19T00:08:04.356Z,12.00
2023-03-19T00:10:51.933Z,11.90
2023-03-19T00:13:40.365Z,11.90
2023-03-19T00:16:28.292Z,11.80
2023-03-19T00:19:15.977Z,11.90
2023-03-19T00:22:03.467Z,11.90
2023-03-19T00:24:50.922Z,11.90
2023-03-19T00:27:38.939Z,11.90
2023-03-19T00:30:27.264Z,11.80
2023-03-19T00:33:15.002Z,11.60
2023-03-19T00:36:06.037Z,11.70
2023-03-19T00:38:53.571Z,11.70
2023-03-19T00:41:41.092Z,11.70
2023-03-19T00:44:28.511Z,11.60
2023-03-19T00:47:15.930Z,11.60
2023-03-19T00:50:05.494Z,11.80
2023-03-19T00:52:53.113Z,11.60
2023-03-19T00:55:41.378Z,11.50
2023-03-19T00:58:28.832Z,11.50
2023-03-19T01:01:19.117Z,11.50
2023-03-19T01:04:06.679Z,11.40
2023-03-19T01:06:54.163Z,11.50
2023-03-19T01:09:42.134Z,11.60
2023-03-19T01:12:29.667Z,11.60
2023-03-19T01:15:17.856Z,11.50
2023-03-19T01:18:06.076Z,11.40
2023-03-19T01:20:53.662Z,11.40
2023-03-19T01:23:41.232Z,11.40
2023-03-19T01:26:28.833Z,11.40
2023-03-19T01:29:16.390Z,11.30
2023-03-19T01:32:04.212Z,11.40
2023-03-19T01:34:51.735Z,11.40
2023-03-19T01:37:39.397Z,11.50
2023-03-19T01:40:26.871Z,11.50
2023-03-19T01:43:23.868Z,11.50
2023-03-19T01:46:37.782Z,11.50
2023-03-19T01:49:29.034Z,11.40
2023-03-19T01:52:17.102Z,11.40
2023-03-19T01:55:07.472Z,11.30
2023-03-19T01:57:57.980Z,11.20
2023-03-19T02:00:46.756Z,11.20
2023-03-19T02:03:37.575Z,11.10
2023-03-19T02:06:25.062Z,11.10
2023-03-19T02:09:15.060Z,11.00
2023-03-19T02:12:02.681Z,11.10
2023-03-19T02:14:50.411Z,11.00
2023-03-19T02:17:38.683Z,11.00
2023-03-19T02:21:05.787Z,11.10
2023-03-19T02:24:42.401Z,11.00
2023-03-19T02:27:29.997Z,11.00
2023-03-19T02:30:32.788Z,10.90
2023-03-19T02:33:20.501Z,10.90
2023-03-19T02:36:17.362Z,11.00
2023-03-19T02:39:13.301Z,11.20
2023-03-19T02:42:03.236Z,11.10
2023-03-19T02:44:51.079Z,11.10
2023-03-19T02:47:38.632Z,11.20
2023-03-19T02:50:26.328Z,11.10
2023-03-19T02:53:13.897Z,11.10
2023-03-19T02:56:01.706Z,11.00
2023-03-19T02:58:49.209Z,11.00
2023-03-19T03:01:36.770Z,11.00
2023-03-19T03:04:24.453Z,10.90
2023-03-19T03:07:12.594Z,10.90
2023-03-19T03:10:00.236Z,11.00
2023-03-19T03:12:47.647Z,11.10
2023-03-19T03:15:35.331Z,10.90
2023-03-19T03:18:22.985Z,10.80
2023-03-19T03:21:10.498Z,10.80
2023-03-19T03:23:57.983Z,10.80
2023-03-19T03:26:45.794Z,10.80
2023-03-19T03:29:33.300Z,10.60
2023-03-19T03:32:21.030Z,10.60
2023-03-19T03:35:09.837Z,10.60
2023-03-19T03:37:58.075Z,10.60
2023-03-19T03:40:45.877Z,10.50
2023-03-19T03:43:34.001Z,10.50
2023-03-19T03:46:21.473Z,10.60
2023-03-19T03:49:09.025Z,10.50
2023-03-19T03:51:57.424Z,10.50
2023-03-19T03:54:44.906Z,10.50
2023-03-19T03:57:32.496Z,10.50
2023-03-19T04:00:20.794Z,10.50
2023-03-19T04:03:09.096Z,10.50
2023-03-19T04:05:57.326Z,10.60
2023-03-19T04:08:46.313Z,10.70
2023-03-19T04:11:35.576Z,10.60
2023-03-19T04:14:23.061Z,10.50
2023-03-19T04:17:11.172Z,10.50
2023-03-19T04:19:58.721Z,10.80
2023-03-19T04:22:46.811Z,10.90
2023-03-19T04:25:34.440Z,11.10
2023-03-19T04:28:21.897Z,11.10
2023-03-19T04:31:10.983Z,10.90
2023-03-19T04:33:58.551Z,10.90
2023-03-19T04:36:46.260Z,10.80
2023-03-19T04:39:33.741Z,10.80
2023-03-19T04:42:22.115Z,10.60
2023-03-19T04:45:10.141Z,10.70
2023-03-19T04:47:58.298Z,10.60
2023-03-19T04:50:47.327Z,10.60
2023-03-19T04:53:37.869Z,10.40
2023-03-19T04:56:25.808Z,10.50
2023-03-19T04:59:13.619Z,10.60
2023-03-19T05:02:01.190Z,10.60
2023-03-19T05:04:48.775Z,10.50
2023-03-19T05:07:36.495Z,10.40
2023-03-19T05:10:24.298Z,10.60
2023-03-19T05:13:11.809Z,10.60
2023-03-19T05:15:59.565Z,10.60
2023-03-19T05:18:47.902Z,10.60
2023-03-19T05:21:35.411Z,10.70
2023-03-19T05:24:23.950Z,10.70
2023-03-19T05:27:12.551Z,10.80
2023-03-19T05:30:01.569Z,11.10
2023-03-19T05:32:50.426Z,11.10
2023-03-19T05:35:38.662Z,11.20
2023-03-19T05:38:26.570Z,11.40
2023-03-19T05:41:14.085Z,11.40
2023-03-19T05:44:01.835Z,11.50
2023-03-19T05:46:49.394Z,11.70
2023-03-19T05:49:36.962Z,11.90
2023-03-19T05:52:24.462Z,12.00
2023-03-19T05:55:12.452Z,12.20
2023-03-19T05:57:59.905Z,12.20
2023-03-19T06:00:48.710Z,12.20
2023-03-19T06:03:36.398Z,12.30
2023-03-19T06:06:24.388Z,12.60
2023-03-19T06:09:12.216Z,12.50
2023-03-19T06:11:59.732Z,12.70
2023-03-19T06:14:48.207Z,12.80
2023-03-19T06:17:39.287Z,13.00
2023-03-19T06:20:27.729Z,13.50
2023-03-19T06:23:16.401Z,13.60
2023-03-19T06:26:05.882Z,13.80
2023-03-19T06:28:53.780Z,13.80
2023-03-19T06:31:41.872Z,13.50
2023-03-19T06:34:29.568Z,13.30
2023-03-19T06:37:17.247Z,13.40
2023-03-19T06:40:05.673Z,13.50
2023-03-19T06:42:53.277Z,13.60
2023-03-19T06:45:40.820Z,13.70
2023-03-19T06:48:28.316Z,13.80
2023-03-19T06:51:15.857Z,14.10
2023-03-19T06:54:03.438Z,14.20
2023-03-19T06:56:51.524Z,14.40
2023-03-19T06:59:39.213Z,14.70
2023-03-19T07:02:27.243Z,14.90
2023-03-19T07:05:15.535Z,15.20
2023-03-19T07:08:03.448Z,15.40
2023-03-19T07:10:51.021Z,15.70
2023-03-19T07:13:38.785Z,15.90
2023-03-19T07:16:26.385Z,15.90
2023-03-19T07:19:13.881Z,16.30
2023-03-19T07:22:01.542Z,16.10
2023-03-19T07:24:49.106Z,15.80
2023-03-19T07:27:36.650Z,16.20
2023-03-19T07:30:24.441Z,16.00
2023-03-19T07:33:12.567Z,16.50
2023-03-19T07:36:00.187Z,16.80
2023-03-19T07:38:47.758Z,17.10
2023-03-19T07:41:35.649Z,17.50
2023-03-19T07:44:23.144Z,17.60
2023-03-19T07:47:22.553Z,17.60
2023-03-19T07:50:13.830Z,17.00
2023-03-19T07:53:01.357Z,17.20
2023-03-19T07:55:49.261Z,17.50
2023-03-19T07:58:36.904Z,17.30
2023-03-19T08:01:24.391Z,17.60
2023-03-19T08:04:11.956Z,17.60
2023-03-19T08:06:59.435Z,17.50
2023-03-19T08:09:46.956Z,17.50
2023-03-19T08:12:40.936Z,17.60
2023-03-19T08:15:28.451Z,17.60
2023-03-19T08:18:16.031Z,17.20
2023-03-19T08:21:04.020Z,17.70
2023-03-19T08:23:52.668Z,17.70
2023-03-19T08:26:40.421Z,17.50
2023-03-19T08:29:28.212Z,18.10
2023-03-19T08:32:15.890Z,18.30
2023-03-19T08:35:04.951Z,18.40
2023-03-19T08:37:52.943Z,18.20
2023-03-19T08:40:40.705Z,18.40
2023-03-19T08:43:29.561Z,17.60
2023-03-19T08:46:17.126Z,17.30
2023-03-19T08:49:04.655Z,18.10
2023-03-19T08:51:52.386Z,18.40
2023-03-19T08:54:39.887Z,18.70
2023-03-19T08:57:27.445Z,18.70
2023-03-19T09:00:16.279Z,19.10
2023-03-19T09:03:04.105Z,19.20
2023-03-19T09:05:51.898Z,19.20
2023-03-19T09:08:39.391Z,19.30
2023-03-19T09:11:26.955Z,19.50
2023-03-19T09:14:16.776Z,19.60
2023-03-19T09:17:05.530Z,19.80
2023-03-19T09:19:52.974Z,19.60
2023-03-19T09:22:40.700Z,20.20
2023-03-19T09:25:28.246Z,20.40
2023-03-19T09:28:16.527Z,20.60
2023-03-19T09:31:07.451Z,20.80
2023-03-19T09:33:55.011Z,20.10
2023-03-19T09:36:42.480Z,20.00
2023-03-19T09:39:30.055Z,19.90
2023-03-19T09:42:57.373Z,20.10
2023-03-19T09:45:47.740Z,20.50
2023-03-19T09:48:56.119Z,20.60
2023-03-19T09:51:58.859Z,20.70
2023-03-19T09:54:57.152Z,21.00
2023-03-19T09:57:45.218Z,20.80
2023-03-19T10:00:38.953Z,21.00
2023-03-19T10:04:08.798Z,21.30
2023-03-19T10:07:23.864Z,21.70
2023-03-19T10:10:46.703Z,21.90
2023-03-19T10:14:17.767Z,21.70
2023-03-19T10:17:10.553Z,22.10
2023-03-19T10:20:28.267Z,22.10
2023-03-19T10:23:49.531Z,22.30
2023-03-19T10:26:37.074Z,21.60
2023-03-19T10:29:25.198Z,21.70
2023-03-19T10:32:29.675Z,21.90
2023-03-19T10:35:39.781Z,22.30
2023-03-19T10:38:28.250Z,22.50
2023-03-19T10:41:26.815Z,22.70
2023-03-19T10:44:40.628Z,22.80
2023-03-19T10:47:28.359Z,23.20
2023-03-19T10:50:23.667Z,23.20
2023-03-19T10:53:14.096Z,23.50
2023-03-19T10:56:26.064Z,22.60
2023-03-19T10:59:39.895Z,23.10
2023-03-19T11:02:32.021Z,23.00
2023-03-19T11:05:26.796Z,23.00
2023-03-19T11:08:34.815Z,22.90
2023-03-19T11:11:51.188Z,23.80
2023-03-19T11:14:44.671Z,23.90
2023-03-19T11:17:39.554Z,23.50
2023-03-19T11:20:29.137Z,23.30
2023-03-19T11:23:18.099Z,23.60
2023-03-19T11:26:05.954Z,24.10
2023-03-19T11:28:53.525Z,23.70
2023-03-19T11:32:21.595Z,24.20
2023-03-19T11:35:17.647Z,23.80
2023-03-19T11:38:17.237Z,23.70
2023-03-19T11:41:44.642Z,23.70
2023-03-19T11:44:49.367Z,24.00
2023-03-19T11:48:02.623Z,24.10
2023-03-19T11:51:08.363Z,24.40
2023-03-19T11:54:17.903Z,24.10
2023-03-19T11:57:17.199Z,24.00
2023-03-19T12:00:26.121Z,24.30
2023-03-19T12:03:52.641Z,24.00
2023-03-19T12:07:05.725Z,24.60
2023-03-19T12:10:35.114Z,24.10
2023-03-19T12:13:53.794Z,23.80
2023-03-19T12:17:10.193Z,24.20
2023-03-19T12:20:30.316Z,24.40
2023-03-19T12:23:27.186Z,24.90
2023-03-19T12:26:33.176Z,24.70
2023-03-19T12:30:03.869Z,24.40
2023-03-19T12:33:24.838Z,24.30
2023-03-19T12:36:29.443Z,24.10
2023-03-19T12:39:26.244Z,24.40
2023-03-19T12:42:21.427Z,24.50
2023-03-19T12:45:27.692Z,25.10
2023-03-19T12:48:28.912Z,25.00
2023-03-19T12:51:23.330Z,25.10
2023-03-19T12:54:20.984Z,25.20
2023-03-19T12:57:24.196Z,25.60
2023-03-19T13:01:03.566Z,25.60
2023-03-19T13:04:10.282Z,25.40
2023-03-19T13:07:34.334Z,25.10
2023-03-19T13:10:23.041Z,25.70
2023-03-19T13:13:49.448Z,25.90
2023-03-19T13:17:05.931Z,26.00
2023-03-19T13:19:56.371Z,26.20
2023-03-19T13:22:55.727Z,26.10
2023-03-19T13:25:50.548Z,26.00
2023-03-19T13:29:08.058Z,26.00
2023-03-19T13:32:30.556Z,25.50
2023-03-19T13:35:45.622Z,25.50
2023-03-19T13:38:49.064Z,26.00
2023-03-19T13:41:37.699Z,25.80
2023-03-19T13:44:33.262Z,25.70
2023-03-19T13:47:26.827Z,25.90
2023-03-19T13:50:20.532Z,26.20
2023-03-19T13:53:31.402Z,26.30
2023-03-19T13:56:29.424Z,26.30
2023-03-19T13:59:27.258Z,26.30
2023-03-19T14:02:27.092Z,26.10
2023-03-19T14:05:14.461Z,25.80
2023-03-19T14:08:14.413Z,25.90
2023-03-19T14:11:05.927Z,25.80
2023-03-19T14:13:54.588Z,25.60
2023-03-19T14:16:46.820Z,25.90
2023-03-19T14:19:42.253Z,25.60
2023-03-19T14:22:58.309Z,25.80
2023-03-19T14:26:06.680Z,25.40
2023-03-19T14:29:08.488Z,25.00
2023-03-19T14:32:08.784Z,25.00
2023-03-19T14:34:56.957Z,25.10
2023-03-19T14:37:51.427Z,25.00
2023-03-19T14:40:52.280Z,24.90
2023-03-19T14:44:08.968Z,24.70
2023-03-19T14:47:08.365Z,25.00
2023-03-19T14:50:26.248Z,24.90
2023-03-19T14:53:39.141Z,25.10
2023-03-19T14:56:37.048Z,24.80
2023-03-19T14:59:24.595Z,24.60
2023-03-19T15:02:53.890Z,24.70
2023-03-19T15:05:41.447Z,24.60
2023-03-19T15:08:33.603Z,25.00
2023-03-19T15:11:50.452Z,24.30
2023-03-19T15:15:07.280Z,24.30
2023-03-19T15:18:04.470Z,24.30
2023-03-19T15:20:57.122Z,24.30
2023-03-19T15:23:47.970Z,24.10
2023-03-19T15:26:37.563Z,23.90
2023-03-19T15:29:33.322Z,23.90
2023-03-19T15:33:10.488Z,23.60
2023-03-19T15:35:52.474Z,23.90
2023-03-19T15:38:52.461Z,23.60
2023-03-19T15:41:47.385Z,23.40
2023-03-19T15:44:47.154Z,23.30
2023-03-19T15:47:41.923Z,23.30
2023-03-19T15:50:35.722Z,22.90
2023-03-19T15:53:28.790Z,23.00
2023-03-19T15:56:20.369Z,23.00
2023-03-19T15:59:08.093Z,23.20
2023-03-19T16:02:02.030Z,22.90
2023-03-19T16:05:18.045Z,22.90
2023-03-19T16:08:18.934Z,23.10
2023-03-19T16:11:28.862Z,22.60
2023-03-19T16:14:25.018Z,22.50
2023-03-19T16:17:16.914Z,22.50
2023-03-19T16:20:06.289Z,22.70
2023-03-19T16:22:58.810Z,22.50
2023-03-19T16:25:47.274Z,22.50
2023-03-19T16:28:34.762Z,22.50
2023-03-19T16:31:29.878Z,22.30
2023-03-19T16:34:46.511Z,22.30
2023-03-19T16:37:55.288Z,21.90
2023-03-19T16:41:10.989Z,21.90
2023-03-19T16:44:29.316Z,22.00
2023-03-19T16:47:17.988Z,21.70
2023-03-19T16:50:06.431Z,21.60
2023-03-19T16:52:53.921Z,21.50
2023-03-19T16:55:42.260Z,21.50
2023-03-19T16:58:48.419Z,21.30
2023-03-19T17:01:36.010Z,21.00
2023-03-19T17:04:24.222Z,21.00
2023-03-19T17:07:12.622Z,20.90
2023-03-19T17:10:00.153Z,20.90
2023-03-19T17:12:54.478Z,20.80
2023-03-19T17:15:42.856Z,20.70
2023-03-19T17:18:38.486Z,20.60
2023-03-19T17:21:30.759Z,20.50
2023-03-19T17:24:36.636Z,20.30
2023-03-19T17:27:24.154Z,20.20
2023-03-19T17:30:13.857Z,20.20
2023-03-19T17:33:01.553Z,20.00
2023-03-19T17:35:49.247Z,20.00
2023-03-19T17:38:36.873Z,19.90
2023-03-19T17:41:24.588Z,19.80
2023-03-19T17:44:12.243Z,19.70
2023-03-19T17:46:59.929Z,19.60
2023-03-19T17:49:48.016Z,19.60
2023-03-19T17:52:36.401Z,19.50
2023-03-19T17:55:29.953Z,19.40
2023-03-19T17:58:21.355Z,19.30
2023-03-19T18:01:23.599Z,19.30
2023-03-19T18:04:19.611Z,19.20
2023-03-19T18:07:10.907Z,19.10
2023-03-19T18:09:58.417Z,19.00
2023-03-19T18:12:45.973Z,18.90
2023-03-19T18:15:34.586Z,18.80
2023-03-19T18:18:22.490Z,18.80
2023-03-19T18:21:15.707Z,18.70
2023-03-19T18:24:04.712Z,18.60
2023-03-19T18:26:52.199Z,18.60
2023-03-19T18:29:39.685Z,18.60
2023-03-19T18:32:32.773Z,18.50
2023-03-19T18:35:27.838Z,18.50
2023-03-19T18:38:22.846Z,18.50
2023-03-19T18:41:20.142Z,18.50
2023-03-19T18:44:09.270Z,18.50
2023-03-19T18:46:56.894Z,18.40
2023-03-19T18:49:44.862Z,18.40
2023-03-19T18:52:32.418Z,18.40
2023-03-19T18:55:26.843Z,18.40
2023-03-19T18:58:23.363Z,18.40
2023-03-19T19:01:18.093Z,18.30
2023-03-19T19:04:05.927Z,18.30
2023-03-19T19:06:54.629Z,18.20
2023-03-19T19:09:42.488Z,18.10
2023-03-19T19:12:30.167Z,18.10
2023-03-19T19:15:30.134Z,18.10
2023-03-19T19:18:29.166Z,18.00
2023-03-19T19:21:16.768Z,18.00
2023-03-19T19:24:04.596Z,17.90
2023-03-19T19:26:54.298Z,17.80
2023-03-19T19:29:42.397Z,17.70
2023-03-19T19:32:30.973Z,17.60
2023-03-19T19:35:26.831Z,17.60
2023-03-19T19:38:15.649Z,17.60
2023-03-19T19:41:04.531Z,17.50
2023-03-19T19:43:55.767Z,17.40
2023-03-19T19:46:44.086Z,17.40
2023-03-19T19:49:32.000Z,17.30
2023-03-19T19:52:20.401Z,17.20
2023-03-19T19:55:08.706Z,17.10
2023-03-19T19:57:58.063Z,17.10
2023-03-19T20:01:00.154Z,17.00
2023-03-19T20:03:52.129Z,16.90
2023-03-19T20:06:39.623Z,16.80
2023-03-19T20:09:27.558Z,16.80
2023-03-19T20:12:29.720Z,16.70
2023-03-19T20:15:35.078Z,16.60
2023-03-19T20:18:25.830Z,16.60
2023-03-19T20:21:15.144Z,16.50
2023-03-19T20:24:02.819Z,16.50
2023-03-19T20:26:50.458Z,16.40
2023-03-19T20:29:40.528Z,16.40
2023-03-19T20:32:38.478Z,16.40
2023-03-19T20:35:29.931Z,16.40
2023-03-19T20:38:17.668Z,16.40
2023-03-19T20:41:20.395Z,16.40
2023-03-19T20:44:07.924Z,16.20
2023-03-19T20:46:55.457Z,16.20
2023-03-19T20:49:43.232Z,16.20
2023-03-19T20:52:30.945Z,16.20
2023-03-19T20:55:22.707Z,16.10
2023-03-19T20:58:24.041Z,16.10
2023-03-19T21:01:11.927Z,16.00
2023-03-19T21:03:59.438Z,16.00
2023-03-19T21:06:53.461Z,15.90
2023-03-19T21:09:41.915Z,15.90
2023-03-19T21:12:33.349Z,15.90
2023-03-19T21:15:21.313Z,15.90
2023-03-19T21:18:09.197Z,15.80
2023-03-19T21:20:58.115Z,15.80
2023-03-19T21:23:59.857Z,15.80
2023-03-19T21:26:48.665Z,15.70
2023-03-19T21:29:36.389Z,15.80
2023-03-19T21:32:23.839Z,15.70
2023-03-19T21:35:21.576Z,15.70
2023-03-19T21:38:09.059Z,15.70
2023-03-19T21:41:05.114Z,15.70
2023-03-19T21:44:00.059Z,15.80
2023-03-19T21:46:48.675Z,15.80
2023-03-19T21:49:36.298Z,15.80
2023-03-19T21:52:23.782Z,15.80
2023-03-19T21:55:17.378Z,15.80
2023-03-19T21:58:09.941Z,15.80
2023-03-19T22:00:57.859Z,15.80
2023-03-19T22:03:45.919Z,15.80
2023-03-19T22:06:34.439Z,15.90
2023-03-19T22:09:21.929Z,15.90
2023-03-19T22:12:29.009Z,16.00
2023-03-19T22:15:31.287Z,15.90
2023-03-19T22:18:19.258Z,15.80
2023-03-19T22:21:09.317Z,15.80
2023-03-19T22:23:56.835Z,15.80
2023-03-19T22:26:47.230Z,15.80
2023-03-19T22:29:34.879Z,15.90
2023-03-19T22:32:22.457Z,15.90
2023-03-19T22:35:19.708Z,16.00
2023-03-19T22:38:07.285Z,16.00
2023-03-19T22:40:56.851Z,16.10
2023-03-19T22:43:46.467Z,16.10
2023-03-19T22:46:34.438Z,16.20
2023-03-19T22:49:21.983Z,16.30
2023-03-19T22:52:14.003Z,16.40
2023-03-19T22:55:01.532Z,16.40
2023-03-19T22:57:49.460Z,16.50
2023-03-19T23:00:37.446Z,16.50
2023-03-19T23:03:30.974Z,16.60
2023-03-19T23:06:30.682Z,16.60
2023-03-19T23:09:32.451Z,16.60
2023-03-19T23:12:20.600Z,16.60
2023-03-19T23:15:09.671Z,16.60
2023-03-19T23:17:59.644Z,16.70
2023-03-19T23:20:49.247Z,16.70
2023-03-19T23:23:37.631Z,16.70
2023-03-19T23:26:30.213Z,16.80
2023-03-19T23:29:22.376Z,16.80
2023-03-19T23:32:12.735Z,16.80
2023-03-19T23:35:01.849Z,16.80
2023-03-19T23:37:50.764Z,16.80
2023-03-19T23:40:46.953Z,16.90
2023-03-19T23:43:35.443Z,16.90
2023-03-19T23:46:23.040Z,16.90
2023-03-19T23:49:24.133Z,17.00
2023-03-19T23:52:14.268Z,17.00
2023-03-19T23:55:01.777Z,16.90
2023-03-19T23:57:50.363Z,16.90
